Time;durP1;ratioP1;P1;durP2;ratioP2;P2;SDS_P1;SDS_P2;PMS_P1;PMS_P2;Temp;Humidity;BMP_temperature;BMP_pressure;BME280_temperature;BME280_humidity;BME280_pressure;Samples;Min_cycle;Max_cycle;Signal;HPM_P1;HPM_P2
2022/06/18 00:00:25;;;;;;;1.05;0.80;;;;;;;15.54;100.00;99720.79;1754573;79;21638;-52
2022/06/18 00:02:52;;;;;;;0.72;0.72;;;;;;;15.53;100.00;99714.95;1751704;79;21113;-53
2022/06/18 00:05:20;;;;;;;1.32;0.90;;;;;;;15.52;100.00;99712.72;1753300;79;21432;-53
2022/06/18 00:07:52;;;;;;;2.55;0.80;;;;;;;15.54;100.00;99707.22;1754626;79;21445;-53
2022/06/18 00:10:25;;;;;;;0.93;0.80;;;;;;;15.54;100.00;99711.30;1749633;79;21148;-53
2022/06/18 00:15:39;;;;;;;0.90;0.80;;;;;;;15.57;100.00;99702.92;1724491;81;21475;-52
2022/06/18 00:18:12;;;;;;;2.10;1.30;;;;;;;15.58;100.00;99707.38;1755033;79;21384;-53
2022/06/18 00:20:39;;;;;;;1.05;0.80;;;;;;;15.59;100.00;99703.69;1756405;79;20886;-53
2022/06/18 00:23:11;;;;;;;1.67;0.95;;;;;;;15.61;100.00;99706.30;1756579;79;20926;-53
2022/06/18 00:25:40;;;;;;;0.80;0.80;;;;;;;15.62;100.00;99708.05;1756895;79;20915;-53
2022/06/18 00:28:22;;;;;;;4.08;0.98;;;;;;;15.61;100.00;99700.88;1747378;80;21343;-53
2022/06/18 00:30:50;;;;;;;1.55;1.00;;;;;;;15.60;100.00;99700.01;1756156;79;20977;-53
2022/06/18 00:33:19;;;;;;;1.70;1.00;;;;;;;15.59;100.00;99697.39;1762781;79;21031;-53
2022/06/18 00:35:46;;;;;;;1.45;0.93;;;;;;;15.59;100.00;99702.33;1763387;79;21576;-53
2022/06/18 00:38:26;;;;;;;2.00;1.10;;;;;;;15.58;100.00;99709.22;1757947;79;21243;-52
2022/06/18 00:40:53;;;;;;;1.55;1.20;;;;;;;15.55;100.00;99706.25;1759547;79;20945;-52
2022/06/18 00:43:41;;;;;;;0.95;0.88;;;;;;;15.50;100.00;99709.23;1729310;81;21461;-53
2022/06/18 00:46:16;;;;;;;0.95;0.80;;;;;;;15.47;100.00;99708.11;1730844;79;20866;-52
2022/06/18 00:49:06;;;;;;;1.50;1.20;;;;;;;15.44;100.00;99706.08;1743882;79;21120;-52
2022/06/18 00:51:44;;;;;;;1.37;0.98;;;;;;;15.42;100.00;99704.83;1756739;79;21131;-54
2022/06/18 00:54:21;;;;;;;2.08;1.12;;;;;;;15.42;100.00;99703.47;1755407;79;20876;-53
2022/06/18 00:57:08;;;;;;;0.93;0.90;;;;;;;15.41;100.00;99702.21;1752970;79;21034;-53
2022/06/18 00:59:47;;;;;;;1.10;1.00;;;;;;;15.41;100.00;99696.79;1744996;79;21107;-54
2022/06/18 01:02:20;;;;;;;1.32;0.98;;;;;;;15.38;100.00;99696.53;1702743;80;21487;-53
2022/06/18 01:04:47;;;;;;;1.00;0.90;;;;;;;15.36;100.00;99699.83;1785751;78;21080;-52
2022/06/18 01:07:22;;;;;;;1.50;0.90;;;;;;;15.37;100.00;99697.99;1779885;78;21104;-52
2022/06/18 01:09:50;;;;;;;1.00;0.88;;;;;;;15.34;100.00;99695.48;1783495;78;21040;-52
2022/06/18 01:12:17;;;;;;;1.27;0.82;;;;;;;15.32;100.00;99692.86;1780420;78;21041;-52
2022/06/18 01:14:43;;;;;;;1.67;1.05;;;;;;;15.32;100.00;99694.70;1777678;78;21161;-52
2022/06/18 01:17:10;;;;;;;0.85;0.78;;;;;;;15.31;100.00;99696.55;1779233;78;21044;-52
2022/06/18 01:19:44;;;;;;;1.27;1.00;;;;;;;15.30;100.00;99695.32;1782813;78;21130;-52
2022/06/18 01:22:48;;;;;;;0.72;0.72;;;;;;;15.30;100.00;99688.06;1782943;78;21068;-52
2022/06/18 01:25:16;;;;;;;1.10;0.90;;;;;;;15.31;100.00;99688.93;1783750;78;21080;-52
2022/06/18 01:27:44;;;;;;;1.42;1.32;;;;;;;15.30;100.00;99685.34;1789418;78;21601;-52
2022/06/18 01:30:21;;;;;;;1.17;1.07;;;;;;;15.27;100.00;99682.83;1780546;78;21052;-52
2022/06/18 01:32:52;;;;;;;3.42;1.30;;;;;;;15.26;100.00;99687.87;1786950;78;21106;-52
2022/06/18 01:35:20;;;;;;;3.42;1.30;;;;;;;15.24;100.00;99685.74;1781082;78;21108;-52
2022/06/18 01:37:49;;;;;;;1.30;0.93;;;;;;;15.23;100.00;99693.98;1786508;78;21145;-52
2022/06/18 01:40:25;;;;;;;1.42;0.95;;;;;;;15.18;100.00;99689.37;1782246;78;21813;-52
2022/06/18 01:42:52;;;;;;;1.32;1.22;;;;;;;15.13;100.00;99686.98;1778381;78;21041;-52
2022/06/18 01:45:25;;;;;;;1.10;0.90;;;;;;;15.09;100.00;99681.37;1785251;78;21108;-52
2022/06/18 01:48:00;;;;;;;1.32;0.93;;;;;;;15.07;100.00;99675.17;1778270;78;21081;-52
2022/06/18 01:50:44;;;;;;;2.20;1.05;;;;;;;15.06;100.00;99684.28;1785101;78;21554;-52
2022/06/18 01:53:23;;;;;;;1.12;1.00;;;;;;;15.03;100.00;99677.25;1782660;78;22289;-52
2022/06/18 01:56:00;;;;;;;6.10;1.10;;;;;;;15.05;100.00;99675.80;1786345;78;21025;-52
2022/06/18 01:58:46;;;;;;;0.98;0.90;;;;;;;15.05;100.00;99673.08;1784143;78;21013;-52
2022/06/18 02:01:24;;;;;;;1.15;1.00;;;;;;;15.07;100.00;99680.59;1778515;78;21096;-52
2022/06/18 02:03:57;;;;;;;1.20;1.10;;;;;;;15.10;100.00;99682.63;1784772;78;21505;-52
2022/06/18 02:06:25;;;;;;;1.20;1.00;;;;;;;15.12;100.00;99674.40;1779242;78;21302;-52
2022/06/18 02:08:52;;;;;;;0.98;0.88;;;;;;;15.13;100.00;99666.16;1785264;78;21052;-52
2022/06/18 02:11:19;;;;;;;1.10;0.93;;;;;;;15.17;100.00;99670.88;1778211;78;21037;-52
2022/06/18 02:13:56;;;;;;;1.17;0.95;;;;;;;15.17;100.00;99666.81;1779883;78;21030;-51
2022/06/18 02:16:26;;;;;;;1.10;1.00;;;;;;;15.19;100.00;99666.70;1781445;78;21029;-52
2022/06/18 02:18:52;;;;;;;1.45;1.30;;;;;;;15.20;100.00;99665.73;1778972;78;21077;-52
2022/06/18 02:21:23;;;;;;;1.50;1.40;;;;;;;15.22;100.00;99666.51;1776035;78;21070;-52
2022/06/18 02:23:52;;;;;;;2.55;1.35;;;;;;;15.23;100.00;99665.50;1774180;78;21024;-52
2022/06/18 02:26:20;;;;;;;2.37;1.45;;;;;;;15.19;100.00;99670.77;1782729;78;21147;-52
2022/06/18 02:28:50;;;;;;;1.35;1.00;;;;;;;15.14;100.00;99671.11;1780570;78;21012;-52
2022/06/18 02:31:20;;;;;;;1.42;1.10;;;;;;;15.12;100.00;99671.20;1784125;78;21743;-52
2022/06/18 02:33:51;;;;;;;1.30;1.20;;;;;;;15.12;100.00;99671.69;1780181;78;20989;-51
2022/06/18 02:36:27;;;;;;;1.52;1.00;;;;;;;15.13;100.00;99678.37;1780411;78;21061;-52
2022/06/18 02:39:00;;;;;;;1.00;1.00;;;;;;;15.15;100.00;99670.97;1781355;78;21061;-52
2022/06/18 02:41:27;;;;;;;3.27;1.37;;;;;;;15.19;100.00;99677.55;1734898;78;21124;-52
2022/06/18 02:43:54;;;;;;;1.47;1.07;;;;;;;15.22;100.00;99680.06;1779076;78;21327;-52
2022/06/18 02:46:22;;;;;;;1.15;0.98;;;;;;;15.25;100.00;99687.97;1775370;78;21056;-54
2022/06/18 02:48:48;;;;;;;1.02;1.02;;;;;;;15.23;100.00;99682.64;1746924;79;21045;-51
2022/06/18 02:51:15;;;;;;;7.05;1.40;;;;;;;15.24;100.00;99693.01;1778174;78;21066;-52
2022/06/18 02:53:41;;;;;;;1.05;1.00;;;;;;;15.23;100.00;99693.49;1778150;78;21108;-51
2022/06/18 02:56:12;;;;;;;1.82;1.45;;;;;;;15.24;100.00;99694.36;1775554;78;21131;-52
2022/06/18 02:58:43;;;;;;;3.42;1.37;;;;;;;15.26;100.00;99695.13;1772590;78;21028;-52
2022/06/18 03:01:15;;;;;;;2.50;1.30;;;;;;;15.26;100.00;99687.87;1773585;78;21449;-52
2022/06/18 03:03:50;;;;;;;2.20;1.60;;;;;;;15.30;100.00;99695.32;1776067;78;20973;-51
2022/06/18 03:06:18;;;;;;;4.15;1.50;;;;;;;15.31;100.00;99691.13;1776325;78;21062;-51
2022/06/18 03:08:46;;;;;;;2.52;1.65;;;;;;;15.32;100.00;99705.55;1786386;78;21663;-52
2022/06/18 03:14:00;;;;;;;2.55;1.95;;;;;;;15.31;100.00;99696.55;1780579;78;21323;-52
2022/06/18 03:16:28;;;;;;;1.67;1.57;;;;;;;15.32;100.00;99696.06;1782632;78;20922;-51
2022/06/18 03:18:57;;;;;;;2.55;1.72;;;;;;;15.32;100.00;99707.78;1778250;78;20945;-52
2022/06/18 03:21:47;;;;;;;1.77;1.67;;;;;;;15.33;100.00;99702.74;1777994;78;21824;-52
2022/06/18 03:24:14;;;;;;;3.85;2.30;;;;;;;15.32;100.00;99703.71;1778842;78;21503;-50
2022/06/18 03:26:41;;;;;;;2.20;1.72;;;;;;;15.34;100.00;99705.84;1783476;78;20917;-51
2022/06/18 03:29:09;;;;;;;1.95;1.85;;;;;;;15.37;100.00;99703.41;1778460;78;21437;-52
2022/06/18 03:31:37;;;;;;;1.95;1.70;;;;;;;15.40;100.00;99704.54;1779413;78;21468;-50
2022/06/18 03:34:04;;;;;;;2.05;1.95;;;;;;;15.40;100.00;99702.70;1776916;78;21065;-51
2022/06/18 03:36:32;;;;;;;3.33;2.22;;;;;;;15.43;100.00;99705.70;1776795;78;21431;-51
2022/06/18 03:38:58;;;;;;;2.67;2.47;;;;;;;15.43;100.00;99703.85;1779367;78;21378;-51
2022/06/18 03:41:26;;;;;;;3.27;2.92;;;;;;;15.45;100.00;99707.83;1773660;78;20926;-51
2022/06/18 03:43:54;;;;;;;2.90;2.77;;;;;;;15.46;100.00;99702.78;1778520;78;20994;-50
2022/06/18 03:46:21;;;;;;;2.72;2.52;;;;;;;15.48;100.00;99707.62;1776784;78;21107;-51
2022/06/18 03:48:56;;;;;;;3.08;2.87;;;;;;;15.49;100.00;99703.91;1774894;78;21061;-52
2022/06/18 03:51:25;;;;;;;3.47;3.30;;;;;;;15.49;100.00;99704.78;1776376;78;21366;-51
2022/06/18 03:53:52;;;;;;;3.83;3.52;;;;;;;15.49;100.00;99704.78;1781014;78;20898;-50
2022/06/18 03:56:21;;;;;;;5.87;4.42;;;;;;;15.53;100.00;99705.45;1778820;78;20953;-52
2022/06/18 03:58:48;;;;;;;4.08;3.83;;;;;;;15.50;100.00;99713.30;1777885;78;21067;-51
2022/06/18 04:01:21;;;;;;;4.08;3.60;;;;;;;15.51;100.00;99707.39;1776729;78;21438;-52
2022/06/18 04:03:48;;;;;;;3.75;3.55;;;;;;;15.49;100.00;99700.70;1783904;78;21046;-52
2022/06/18 04:06:17;;;;;;;4.25;3.95;;;;;;;15.51;100.00;99700.61;1773285;78;21030;-51
2022/06/18 04:08:44;;;;;;;4.22;4.03;;;;;;;15.52;100.00;99705.94;1777885;78;21646;-50
2022/06/18 04:11:20;;;;;;;5.00;4.60;;;;;;;15.57;100.00;99706.98;1775298;78;21443;-52
2022/06/18 04:13:47;;;;;;;4.28;3.95;;;;;;;15.60;100.00;99705.92;1779155;78;21104;-52
2022/06/18 04:16:31;;;;;;;;;;;;;;;15.60;100.00;99698.65;1779481;78;21069;-51
2022/06/18 04:19:00;;;;;;;5.25;4.95;;;;;;;15.63;100.00;99701.16;1773954;78;20236;-51
2022/06/18 04:21:26;;;;;;;4.05;3.72;;;;;;;15.66;100.00;99706.35;1776348;78;21140;-51
2022/06/18 04:23:53;;;;;;;4.05;3.75;;;;;;;15.68;100.00;99703.05;1776983;78;22407;-52
2022/06/18 04:26:21;;;;;;;4.87;4.60;;;;;;;15.71;100.00;99714.19;1776136;78;21141;-52
2022/06/18 04:28:48;;;;;;;5.12;4.72;;;;;;;15.76;100.00;99709.30;1774596;78;21069;-51
2022/06/18 04:31:16;;;;;;;4.00;3.90;;;;;;;15.79;100.00;99714.03;1779444;78;21045;-51
2022/06/18 04:33:46;;;;;;;3.95;3.75;;;;;;;15.85;100.00;99718.16;1777476;78;21033;-52
2022/06/18 04:36:34;;;;;;;4.17;3.98;;;;;;;15.89;100.00;99709.70;1777470;78;21812;-51
2022/06/18 04:39:03;;;;;;;5.20;4.97;;;;;;;15.95;100.00;99710.23;1783658;78;21515;-52
2022/06/18 04:41:32;;;;;;;5.95;5.15;;;;;;;16.01;100.00;99707.94;1773258;78;21030;-51
2022/06/18 04:44:00;;;;;;;4.08;3.83;;;;;;;16.03;100.00;99722.77;1742751;80;21141;-51
2022/06/18 04:46:29;;;;;;;5.42;3.90;;;;;;;16.02;100.00;99713.75;1713781;81;21571;-51
2022/06/18 04:48:56;;;;;;;4.90;4.60;;;;;;;16.03;100.00;99708.71;1749361;79;21163;-52
2022/06/18 04:51:23;;;;;;;5.62;5.30;;;;;;;16.06;100.00;99710.34;1707527;82;21071;-51
2022/06/18 04:53:50;;;;;;;4.62;4.42;;;;;;;16.11;100.00;99712.23;1737454;80;21588;-51
2022/06/18 04:56:17;;;;;;;5.30;4.83;;;;;;;16.15;100.00;99720.06;1743377;80;21127;-51
2022/06/18 04:58:45;;;;;;;5.25;4.85;;;;;;;16.21;100.00;99717.39;1708664;81;21398;-51
2022/06/18 05:01:18;;;;;;;5.70;5.35;;;;;;;16.27;100.00;99719.16;1718769;81;21261;-52
2022/06/18 05:03:50;;;;;;;5.67;5.25;;;;;;;16.39;100.00;99726.06;1713925;81;21128;-51
2022/06/18 05:06:37;;;;;;;4.72;4.35;;;;;;;16.50;100.00;99732.95;1719002;81;21327;-50
2022/06/18 05:09:08;;;;;;;4.95;4.75;;;;;;;16.55;100.00;99734.34;1692393;81;20989;-50
2022/06/18 05:11:35;;;;;;;5.45;5.00;;;;;;;16.58;100.00;99737.34;1750774;80;21522;-50
2022/06/18 05:14:03;;;;;;;6.05;5.62;;;;;;;16.61;100.00;99733.05;1747675;79;21233;-51
2022/06/18 05:16:33;;;;;;;5.10;4.80;;;;;;;16.67;100.00;99743.49;1751339;79;21065;-50
2022/06/18 05:18:59;;;;;;;5.40;5.10;;;;;;;16.71;100.00;99738.19;1748993;79;21054;-51
2022/06/18 05:21:26;;;;;;;6.72;6.33;;;;;;;16.74;100.00;99745.26;1752119;79;21076;-50
2022/06/18 05:23:54;;;;;;;6.80;6.30;;;;;;;16.79;100.00;99748.00;1754331;79;21038;-51
2022/06/18 05:26:23;;;;;;;7.50;6.92;;;;;;;16.82;100.00;99747.79;1754363;80;21486;-52
2022/06/18 05:28:52;;;;;;;5.95;5.55;;;;;;;16.86;100.00;99745.69;1692357;81;21089;-51
2022/06/18 05:31:19;;;;;;;4.90;4.60;;;;;;;16.92;100.00;99743.91;1717614;81;21550;-51
2022/06/18 05:33:47;;;;;;;5.65;5.35;;;;;;;16.97;100.00;99741.20;1724071;81;21081;-50
2022/06/18 05:36:19;;;;;;;5.72;5.33;;;;;;;17.06;100.00;99746.94;1715030;81;21664;-53
2022/06/18 05:38:43;;;;;;;5.72;5.42;;;;;;;17.09;100.00;99742.16;1713620;81;21211;-52
2022/06/18 05:41:09;;;;;;;7.50;6.58;;;;;;;17.13;100.00;99749.56;1714754;81;21091;-52
2022/06/18 05:43:36;;;;;;;6.30;5.87;;;;;;;17.17;100.00;99747.02;1720818;81;21180;-51
2022/06/18 05:46:12;;;;;;;8.78;8.03;;;;;;;17.20;100.00;99743.55;1715730;81;21121;-51
2022/06/18 05:48:38;;;;;;;7.42;6.90;;;;;;;17.24;100.00;99746.92;1714798;81;21144;-51
2022/06/18 05:51:05;;;;;;;7.12;6.58;;;;;;;17.28;100.00;99756.56;1711491;81;21244;-49
2022/06/18 05:53:32;;;;;;;6.67;6.28;;;;;;;17.28;100.00;99757.44;1714507;81;21471;-51
2022/06/18 05:56:18;;;;;;;5.47;5.17;;;;;;;17.26;100.00;99757.20;1713074;81;21037;-49
2022/06/18 05:58:50;;;;;;;7.25;6.60;;;;;;;17.28;100.00;99757.44;1725105;79;21124;-51
2022/06/18 06:01:19;;;;;;;7.12;6.67;;;;;;;17.34;100.00;99761.56;1752987;79;21537;-51
2022/06/18 06:03:45;;;;;;;8.13;6.67;;;;;;;17.36;100.00;99765.88;1754776;79;21814;-51
2022/06/18 06:06:14;;;;;;;7.33;6.72;;;;;;;17.44;100.00;99767.18;1727975;80;21113;-50
2022/06/18 06:08:44;;;;;;;6.20;5.80;;;;;;;17.50;100.00;99764.85;1756691;79;21103;-51
2022/06/18 06:11:28;;;;;;;8.25;7.55;;;;;;;17.51;100.00;99766.59;1753122;79;21051;-51
2022/06/18 06:13:57;;;;;;;6.53;6.12;;;;;;;17.55;100.00;99759.04;1754447;79;21474;-51
2022/06/18 06:18:05;;;;;;;6.12;5.65;;;;;;;17.66;100.00;99761.84;1793170;78;28129;-50
2022/06/18 06:20:38;;;;;;;6.17;5.83;;;;;;;17.66;100.00;99764.56;1764972;79;21516;-50
2022/06/18 06:23:06;;;;;;;7.20;6.35;;;;;;;17.71;100.00;99761.86;1766071;79;21732;-49
2022/06/18 06:25:33;;;;;;;5.10;4.80;;;;;;;17.75;100.00;99761.14;1769390;79;20900;-51
2022/06/18 06:28:00;;;;;;;5.17;4.03;;;;;;;17.78;100.00;99764.47;1770379;79;20911;-51
2022/06/18 06:30:27;;;;;;;3.75;3.50;;;;;;;17.82;100.00;99762.88;1771825;79;20939;-51
2022/06/18 06:32:54;;;;;;;3.17;2.98;;;;;;;17.90;100.00;99764.52;1770871;79;20954;-52
2022/06/18 06:35:20;;;;;;;3.17;2.98;;;;;;;18.00;100.00;99762.81;1770766;79;20987;-51
2022/06/18 06:37:47;;;;;;;4.70;4.10;;;;;;;18.14;100.00;99756.64;1769674;79;21354;-50
2022/06/18 06:40:14;;;;;;;7.25;6.20;;;;;;;18.25;100.00;99761.73;1768990;79;20966;-51
2022/06/18 06:42:47;;;;;;;6.03;5.40;;;;;;;18.30;100.00;99763.09;1768197;79;21065;-51
2022/06/18 06:45:17;;;;;;;5.05;4.62;;;;;;;18.32;100.00;99752.95;1768386;79;20887;-51
2022/06/18 06:47:45;;;;;;;3.30;3.10;;;;;;;18.38;100.00;99757.02;1771597;79;21723;-50
2022/06/18 06:50:14;;;;;;;3.40;2.95;;;;;;;18.47;100.00;99758.52;1773369;79;21480;-51
2022/06/18 06:52:40;;;;;;;4.03;3.83;;;;;;;18.56;100.00;99753.31;1768686;79;20888;-52
2022/06/18 06:57:57;;;;;;;3.35;3.15;;;;;;;18.77;100.00;99757.94;1765762;79;20903;-52
2022/06/18 07:00:24;;;;;;;2.87;2.67;;;;;;;18.86;100.00;99757.19;1767249;79;21394;-54
2022/06/18 07:02:50;;;;;;;2.60;2.42;;;;;;;18.98;100.00;99765.33;1770042;79;21602;-52
2022/06/18 07:05:17;;;;;;;5.90;2.62;;;;;;;19.06;100.00;99766.42;1766360;79;21096;-53
2022/06/18 07:07:44;;;;;;;3.22;2.92;;;;;;;19.13;100.00;99765.44;1767700;79;21099;-52
2022/06/18 07:10:11;;;;;;;4.30;2.40;;;;;;;19.16;100.00;99767.40;1769046;79;21535;-53
2022/06/18 07:12:38;;;;;;;3.02;2.22;;;;;;;19.20;100.00;99765.30;1769191;79;22400;-53
2022/06/18 07:15:06;;;;;;;4.10;3.10;;;;;;;19.22;100.00;99766.05;1766058;79;21049;-53
2022/06/18 07:17:33;;;;;;;3.42;3.08;;;;;;;19.26;100.00;99768.87;1758766;80;21018;-52
2022/06/18 07:20:00;;;;;;;3.62;2.17;;;;;;;19.27;100.00;99774.20;1758817;80;21027;-52
2022/06/18 07:22:26;;;;;;;3.15;1.67;;;;;;;19.30;100.00;99767.63;1760902;80;20883;-52
2022/06/18 07:24:53;;;;;;;2.77;2.40;;;;;;;19.34;100.00;99775.05;1760491;80;21169;-51
2022/06/18 07:27:19;;;;;;;5.12;2.90;;;;;;;19.34;100.00;99777.77;1761890;80;21010;-52
2022/06/18 07:29:46;;;;;;;2.52;2.42;;;;;;;19.32;100.00;99771.56;1755341;80;21038;-51
2022/06/18 07:32:15;;;;;;;4.42;3.20;;;;;;;19.28;100.00;99781.89;1698688;82;21087;-52
2022/06/18 07:34:41;;;;;;;5.60;3.42;;;;;;;19.22;100.00;99788.71;1759093;80;21123;-52
2022/06/18 07:37:08;;;;;;;1.87;1.77;;;;;;;19.15;100.00;99781.16;1754422;80;21250;-52
2022/06/18 07:39:34;;;;;;;5.00;2.27;;;;;;;19.11;100.00;99787.89;1755413;80;21093;-52
2022/06/18 07:42:02;;;;;;;2.12;1.90;;;;;;;19.11;100.00;99788.75;1698200;82;21040;-52
2022/06/18 07:44:29;;;;;;;2.72;2.52;;;;;;;19.13;100.00;99787.27;1692308;83;21114;-52
2022/06/18 07:47:01;;;;;;;3.12;2.87;;;;;;;19.13;100.00;99791.36;1696939;83;21082;-52
2022/06/18 07:49:27;;;;;;;2.80;2.70;;;;;;;19.12;100.00;99793.72;1695559;82;21322;-52
2022/06/18 07:51:53;;;;;;;2.62;2.08;;;;;;;19.08;100.00;99792.22;1759715;80;21481;-51
2022/06/18 07:54:20;;;;;;;2.45;2.20;;;;;;;19.04;100.00;99794.35;1760984;80;21069;-52
2022/06/18 07:56:48;;;;;;;2.75;1.67;;;;;;;19.02;100.00;99790.01;1757706;80;21112;-52
2022/06/18 07:59:15;;;;;;;1.10;0.95;;;;;;;19.01;100.00;99786.91;1752980;80;21069;-52
2022/06/18 08:01:42;;;;;;;1.57;1.07;;;;;;;19.04;100.00;99787.53;1754148;80;21086;-52
2022/06/18 08:04:08;;;;;;;2.98;1.30;;;;;;;19.10;100.00;99787.02;1753480;80;21025;-52
2022/06/18 08:06:35;;;;;;;4.55;1.45;;;;;;;19.16;100.00;99788.36;1758812;80;21142;-53
2022/06/18 08:09:01;;;;;;;5.47;1.47;;;;;;;19.23;100.00;99781.39;1759630;80;21117;-52
2022/06/18 08:11:29;;;;;;;1.77;1.55;;;;;;;19.32;100.00;99784.72;1765276;80;21390;-52
2022/06/18 08:13:57;;;;;;;2.77;1.90;;;;;;;19.36;100.00;99795.77;1755629;80;21178;-51
2022/06/18 08:16:24;;;;;;;1.87;1.72;;;;;;;19.31;100.00;99785.71;1759306;80;20974;-52
2022/06/18 08:18:51;;;;;;;2.40;1.50;;;;;;;19.30;100.00;99788.59;1758193;80;21035;-52
2022/06/18 08:21:28;;;;;;;2.45;1.10;;;;;;;19.29;100.00;99793.19;1748951;80;21028;-51
2022/06/18 08:23:59;;;;;;;2.67;1.02;;;;;;;19.31;100.00;99796.63;1755863;80;21475;-52
2022/06/18 08:26:26;;;;;;;3.47;1.35;;;;;;;19.37;100.00;99789.31;1695180;82;21087;-52
2022/06/18 08:28:53;;;;;;;4.92;1.45;;;;;;;19.42;100.00;99784.32;1753053;80;21073;-53
2022/06/18 08:31:22;;;;;;;3.92;1.02;;;;;;;19.48;100.00;99785.19;1752519;80;21109;-52
2022/06/18 08:33:49;;;;;;;4.67;0.98;;;;;;;19.57;100.00;99789.88;1756451;80;21490;-51
2022/06/18 08:36:16;;;;;;;2.08;1.00;;;;;;;19.69;100.00;99789.34;1758728;80;21051;-52
2022/06/18 08:38:45;;;;;;;0.95;0.70;;;;;;;19.78;100.00;99787.20;1758251;80;21506;-52
2022/06/18 08:41:40;;;;;;;1.60;0.70;;;;;;;19.86;100.00;99774.24;1759642;80;21012;-53
2022/06/18 08:44:44;;;;;;;0.82;0.60;;;;;;;19.89;100.00;99775.36;1756237;80;21536;-53
2022/06/18 08:47:19;;;;;;;0.70;0.60;;;;;;;19.93;100.00;99771.34;1757429;80;21528;-53
2022/06/18 08:50:10;;;;;;;1.65;0.70;;;;;;;20.01;100.00;99767.44;1754515;80;22003;-52
2022/06/18 08:53:03;;;;;;;1.20;0.80;;;;;;;20.09;100.00;99763.55;1758441;80;21224;-53
2022/06/18 08:55:38;;;;;;;0.68;0.50;;;;;;;20.21;100.00;99767.95;1758119;80;21505;-52
2022/06/18 08:58:16;;;;;;;0.75;0.60;;;;;;;20.38;100.00;99762.39;1755634;80;21572;-53
2022/06/18 09:01:11;;;;;;;0.60;0.60;;;;;;;20.53;100.00;99759.66;1755429;80;21082;-53
2022/06/18 09:03:41;;;;;;;;;;;;;;;20.72;100.00;99761.12;1763281;80;21101;-51
2022/06/18 09:06:47;;;;;;;0.80;0.70;;;;;;;20.92;100.00;99760.69;1757227;80;21008;-51
2022/06/18 09:09:31;;;;;;;2.20;0.70;;;;;;;21.01;100.00;99769.94;1756412;80;21132;-52
2022/06/18 09:12:15;;;;;;;0.90;0.70;;;;;;;20.94;100.00;99770.97;1696135;83;21776;-53
2022/06/18 09:15:03;;;;;;;0.68;0.60;;;;;;;20.80;100.00;99777.34;1750038;80;21061;-53
2022/06/18 09:17:46;;;;;;;1.42;0.72;;;;;;;20.72;100.00;99772.55;1754667;80;21098;-53
2022/06/18 09:20:45;;;;;;;4.78;0.70;;;;;;;20.67;100.00;99777.05;1760042;80;21135;-52
2022/06/18 09:23:17;;;;;;;0.70;0.60;;;;;;;20.64;100.00;99777.84;1723112;82;21421;-53
2022/06/18 09:25:44;;;;;;;0.88;0.50;;;;;;;20.61;100.00;99774.02;1761074;80;20897;-52
2022/06/18 09:28:16;;;;;;;1.67;0.60;;;;;;;20.59;100.00;99771.91;1741259;80;20907;-53
2022/06/18 09:30:51;;;;;;;1.42;0.60;;;;;;;20.58;100.00;99782.51;1762732;80;20914;-54
2022/06/18 09:33:40;;;;;;;4.05;1.10;;;;;;;20.54;100.00;99779.67;1756888;80;21142;-53
2022/06/18 09:36:17;;;;;;;3.00;0.60;;;;;;;20.52;100.00;99774.83;1730081;80;20895;-53
2022/06/18 09:39:08;;;;;;;0.88;0.60;;;;;;;20.56;100.00;99772.20;1758141;80;20988;-54
2022/06/18 09:41:39;;;;;;;0.70;0.60;;;;;;;20.64;100.00;99771.02;1754209;80;20940;-54
2022/06/18 09:44:27;;;;;;;0.72;0.60;;;;;;;20.75;100.00;99773.16;1761353;80;21071;-53
2022/06/18 09:47:02;;;;;;;2.45;0.45;;;;;;;20.85;100.00;99766.33;1766835;80;21510;-53
2022/06/18 09:49:29;;;;;;;1.07;0.50;;;;;;;20.94;100.00;99759.16;1759240;80;20884;-53
2022/06/18 09:52:07;;;;;;;1.00;0.30;;;;;;;20.97;100.00;99758.39;1756568;80;20891;-55
2022/06/18 09:54:39;;;;;;;0.50;0.40;;;;;;;20.96;100.00;99761.26;1757543;79;20872;-53
2022/06/18 09:57:06;;;;;;;0.65;0.50;;;;;;;20.91;100.00;99769.03;1755673;80;20864;-53
2022/06/18 09:59:39;;;;;;;2.37;0.40;;;;;;;20.85;100.00;99773.67;1758818;80;21425;-53
2022/06/18 10:02:27;;;;;;;2.42;0.47;;;;;;;20.74;100.00;99771.42;1753723;80;20959;-53
2022/06/18 10:07:43;;;;;;;2.45;0.40;;;;;;;20.44;100.00;99770.55;1754695;80;21089;-53
2022/06/18 10:10:14;;;;;;;0.85;0.40;;;;;;;20.32;100.00;99790.25;1755880;80;21039;-52
2022/06/18 10:12:48;;;;;;;0.55;0.40;;;;;;;20.22;100.00;99787.95;1755099;80;21165;-53
2022/06/18 10:15:17;;;;;;;1.20;0.50;;;;;;;20.10;100.00;99788.50;1760156;80;21026;-53
2022/06/18 10:18:12;;;;;;;0.60;0.50;;;;;;;20.06;100.00;99781.59;1757813;80;21650;-52
2022/06/18 10:20:55;;;;;;;1.80;0.50;;;;;;;20.01;100.00;99783.34;1766284;80;21057;-53
2022/06/18 10:24:08;;;;;;;1.52;0.55;;;;;;;19.97;100.00;99785.13;1764038;80;21056;-53
2022/06/18 10:26:53;;;;;;;0.65;0.40;;;;;;;19.95;100.00;99775.69;1694975;80;22303;-53
2022/06/18 10:29:34;;;;;;;0.95;0.40;;;;;;;19.98;100.00;99778.66;1771806;80;21072;-53
2022/06/18 10:32:17;;;;;;;3.20;0.40;;;;;;;19.97;100.00;99777.80;1769732;80;21010;-53
2022/06/18 10:35:16;;;;;;;0.50;0.50;;;;;;;20.02;100.00;99775.52;1730501;82;21054;-53
2022/06/18 10:38:14;;;;;;;1.75;0.30;;;;;;;20.14;100.00;99773.59;1702327;82;21082;-53
2022/06/18 10:41:09;;;;;;;1.00;0.53;;;;;;;20.37;100.00;99770.23;1700076;82;21834;-53
2022/06/18 10:44:07;;;;;;;1.45;0.50;;;;;;;20.64;100.00;99772.37;1731950;82;21122;-53
2022/06/18 10:46:36;;;;;;;0.55;0.40;;;;;;;20.86;100.00;99765.83;1641889;84;21059;-53
2022/06/18 10:49:04;;;;;;;1.37;0.40;;;;;;;20.99;100.00;99764.59;1710585;82;21053;-53
2022/06/18 10:51:44;;;;;;;1.00;0.65;;;;;;;21.07;100.00;99768.87;1712867;83;21105;-54
2022/06/18 10:54:11;;;;;;;1.72;0.40;;;;;;;21.13;100.00;99769.66;1729198;82;21556;-53
2022/06/18 10:56:52;;;;;;;2.55;0.53;;;;;;;21.13;100.00;99765.55;1729285;82;21046;-54
2022/06/18 10:59:35;;;;;;;2.15;0.50;;;;;;;21.10;100.00;99763.59;1697510;82;21386;-54
2022/06/18 11:02:12;;;;;;;1.80;0.70;;;;;;;21.07;100.00;99759.78;1710057;82;21071;-53
2022/06/18 11:04:39;;;;;;;0.40;0.40;;;;;;;21.05;100.00;99763.16;1713239;82;21077;-53
2022/06/18 11:07:09;;;;;;;1.85;0.50;;;;;;;21.03;100.00;99765.16;1711560;82;21528;-54
2022/06/18 11:09:44;;;;;;;0.82;0.50;;;;;;;21.01;100.00;99765.30;1731300;82;21018;-54
2022/06/18 11:12:32;;;;;;;0.47;0.47;;;;;;;21.02;100.00;99762.92;1692996;82;21090;-54
2022/06/18 11:15:00;;;;;;;2.05;0.60;;;;;;;21.02;100.00;99770.27;1731185;82;21077;-54
2022/06/18 11:17:41;;;;;;;0.82;0.40;;;;;;;20.98;100.00;99767.47;1731776;82;21142;-53
2022/06/18 11:20:23;;;;;;;0.53;0.50;;;;;;;20.97;100.00;99770.70;1758664;80;21252;-54
2022/06/18 11:22:57;;;;;;;1.17;0.40;;;;;;;20.96;100.00;99773.07;1701025;82;21076;-54
2022/06/18 11:25:49;;;;;;;0.70;0.40;;;;;;;20.96;100.00;99772.20;1762488;80;21038;-53
2022/06/18 11:28:23;;;;;;;1.55;0.60;;;;;;;20.98;100.00;99773.80;1760636;80;21053;-54
2022/06/18 11:30:50;;;;;;;0.78;0.40;;;;;;;21.00;100.00;99766.33;1700051;82;21103;-53
2022/06/18 11:33:41;;;;;;;0.50;0.50;;;;;;;21.03;100.00;99775.61;1697054;83;21145;-54
2022/06/18 11:36:15;;;;;;;0.50;0.50;;;;;;;21.08;100.00;99767.00;1699474;83;21583;-53
2022/06/18 11:38:51;;;;;;;0.82;0.50;;;;;;;21.17;100.00;99772.13;1760811;80;21066;-53
2022/06/18 11:41:28;;;;;;;0.88;0.50;;;;;;;21.20;100.00;99762.28;1753147;80;20977;-53
2022/06/18 11:44:24;;;;;;;0.72;0.53;;;;;;;21.26;100.00;99765.84;1699343;82;21426;-53
2022/06/18 11:47:14;;;;;;;0.62;0.50;;;;;;;21.30;100.00;99754.95;1759032;80;21244;-53
2022/06/18 11:50:02;;;;;;;0.60;0.50;;;;;;;21.37;100.00;99757.48;1754942;80;21379;-52
2022/06/18 11:52:50;;;;;;;0.40;0.40;;;;;;;21.44;100.00;99759.50;1761286;80;21368;-52
2022/06/18 11:55:36;;;;;;;2.05;0.40;;;;;;;21.51;100.00;99754.34;1759925;80;21629;-53
2022/06/18 11:58:40;;;;;;;0.30;0.30;;;;;;;21.52;100.00;99752.81;1760096;80;21094;-52
2022/06/18 12:01:32;;;;;;;3.00;0.40;;;;;;;21.55;100.00;99757.64;1723279;80;21548;-53
2022/06/18 12:04:23;;;;;;;0.82;0.40;;;;;;;21.57;100.00;99748.28;1764108;80;21097;-53
2022/06/18 12:07:10;;;;;;;0.40;0.30;;;;;;;21.63;100.00;99749.07;1700582;82;21549;-52